sensor_id;sensor_type;location;lat;lon;timestamp;P1;durP1;ratioP1;P2;durP2;ratioP2
37483;SDS011;23337;52.212;9.926;2022-09-16T00:01:10;3.30;;;0.90;;
37483;SDS011;23337;52.212;9.926;2022-09-16T00:03:36;4.57;;;0.80;;
37483;SDS011;23337;52.212;9.926;2022-09-16T00:06:03;4.03;;;0.70;;
37483;SDS011;23337;52.212;9.926;2022-09-16T00:08:29;1.43;;;0.60;;
37483;SDS011;23337;52.212;9.926;2022-09-16T00:10:59;3.93;;;0.87;;
37483;SDS011;23337;52.212;9.926;2022-09-16T00:13:25;2.77;;;0.93;;
37483;SDS011;23337;52.212;9.926;2022-09-16T00:15:51;2.73;;;0.70;;
37483;SDS011;23337;52.212;9.926;2022-09-16T00:18:18;2.30;;;0.90;;
37483;SDS011;23337;52.212;9.926;2022-09-16T00:20:48;2.10;;;1.03;;
37483;SDS011;23337;52.212;9.926;2022-09-16T00:23:14;2.83;;;1.57;;
37483;SDS011;23337;52.212;9.926;2022-09-16T00:25:40;3.87;;;1.23;;
37483;SDS011;23337;52.212;9.926;2022-09-16T00:28:06;3.60;;;1.63;;
37483;SDS011;23337;52.212;9.926;2022-09-16T00:30:32;4.97;;;1.50;;
37483;SDS011;23337;52.212;9.926;2022-09-16T00:32:58;2.77;;;1.80;;
37483;SDS011;23337;52.212;9.926;2022-09-16T00:35:24;4.37;;;2.23;;
37483;SDS011;23337;52.212;9.926;2022-09-16T00:37:50;2.70;;;1.50;;
37483;SDS011;23337;52.212;9.926;2022-09-16T00:40:16;3.17;;;1.57;;
37483;SDS011;23337;52.212;9.926;2022-09-16T00:42:42;4.13;;;1.97;;
37483;SDS011;23337;52.212;9.926;2022-09-16T00:45:26;4.60;;;2.23;;
37483;SDS011;23337;52.212;9.926;2022-09-16T00:47:59;3.67;;;2.10;;
37483;SDS011;23337;52.212;9.926;2022-09-16T00:50:48;3.60;;;1.97;;
37483;SDS011;23337;52.212;9.926;2022-09-16T00:53:16;2.67;;;1.40;;
37483;SDS011;23337;52.212;9.926;2022-09-16T00:55:43;4.20;;;1.73;;
37483;SDS011;23337;52.212;9.926;2022-09-16T00:58:12;5.30;;;1.73;;
37483;SDS011;23337;52.212;9.926;2022-09-16T01:00:38;6.20;;;1.77;;
37483;SDS011;23337;52.212;9.926;2022-09-16T01:03:05;2.43;;;1.70;;
37483;SDS011;23337;52.212;9.926;2022-09-16T01:05:31;8.00;;;2.57;;
37483;SDS011;23337;52.212;9.926;2022-09-16T01:07:58;4.60;;;1.73;;
37483;SDS011;23337;52.212;9.926;2022-09-16T01:10:24;2.83;;;1.97;;
37483;SDS011;23337;52.212;9.926;2022-09-16T01:12:53;2.10;;;1.90;;
37483;SDS011;23337;52.212;9.926;2022-09-16T01:15:21;6.30;;;1.30;;
37483;SDS011;23337;52.212;9.926;2022-09-16T01:17:51;3.77;;;1.93;;
37483;SDS011;23337;52.212;9.926;2022-09-16T01:20:22;3.40;;;1.90;;
37483;SDS011;23337;52.212;9.926;2022-09-16T01:28:30;7.73;;;2.07;;
37483;SDS011;23337;52.212;9.926;2022-09-16T01:33:53;4.57;;;1.40;;
37483;SDS011;23337;52.212;9.926;2022-09-16T01:36:24;3.07;;;1.63;;
37483;SDS011;23337;52.212;9.926;2022-09-16T01:41:24;4.10;;;1.33;;
37483;SDS011;23337;52.212;9.926;2022-09-16T01:44:15;2.97;;;1.20;;
37483;SDS011;23337;52.212;9.926;2022-09-16T01:46:53;6.10;;;1.40;;
37483;SDS011;23337;52.212;9.926;2022-09-16T01:49:35;5.00;;;1.20;;
37483;SDS011;23337;52.212;9.926;2022-09-16T01:52:10;3.50;;;1.23;;
37483;SDS011;23337;52.212;9.926;2022-09-16T01:54:40;2.80;;;1.23;;
37483;SDS011;23337;52.212;9.926;2022-09-16T01:57:12;3.47;;;1.20;;
37483;SDS011;23337;52.212;9.926;2022-09-16T01:59:46;4.60;;;1.37;;
37483;SDS011;23337;52.212;9.926;2022-09-16T02:02:20;4.87;;;1.40;;
37483;SDS011;23337;52.212;9.926;2022-09-16T02:04:50;3.50;;;1.23;;
37483;SDS011;23337;52.212;9.926;2022-09-16T02:07:18;4.20;;;1.57;;
37483;SDS011;23337;52.212;9.926;2022-09-16T02:09:48;4.03;;;1.60;;
37483;SDS011;23337;52.212;9.926;2022-09-16T02:12:17;2.73;;;1.53;;
37483;SDS011;23337;52.212;9.926;2022-09-16T02:14:45;1.67;;;1.07;;
37483;SDS011;23337;52.212;9.926;2022-09-16T02:17:13;3.77;;;1.37;;
37483;SDS011;23337;52.212;9.926;2022-09-16T02:19:41;6.37;;;1.40;;
37483;SDS011;23337;52.212;9.926;2022-09-16T02:22:08;3.17;;;1.30;;
37483;SDS011;23337;52.212;9.926;2022-09-16T02:24:36;5.27;;;1.10;;
37483;SDS011;23337;52.212;9.926;2022-09-16T02:27:03;4.23;;;1.17;;
37483;SDS011;23337;52.212;9.926;2022-09-16T02:29:42;3.17;;;1.53;;
37483;SDS011;23337;52.212;9.926;2022-09-16T02:32:09;5.17;;;1.40;;
37483;SDS011;23337;52.212;9.926;2022-09-16T02:34:37;2.57;;;1.13;;
37483;SDS011;23337;52.212;9.926;2022-09-16T02:37:05;4.47;;;1.20;;
37483;SDS011;23337;52.212;9.926;2022-09-16T02:39:33;6.97;;;1.37;;
37483;SDS011;23337;52.212;9.926;2022-09-16T02:42:01;3.50;;;1.67;;
37483;SDS011;23337;52.212;9.926;2022-09-16T02:44:27;4.20;;;1.10;;
37483;SDS011;23337;52.212;9.926;2022-09-16T02:47:16;4.10;;;1.67;;
37483;SDS011;23337;52.212;9.926;2022-09-16T02:52:23;3.60;;;1.57;;
37483;SDS011;23337;52.212;9.926;2022-09-16T02:54:59;2.23;;;1.60;;
37483;SDS011;23337;52.212;9.926;2022-09-16T02:57:27;4.20;;;1.80;;
37483;SDS011;23337;52.212;9.926;2022-09-16T02:59:54;4.67;;;1.80;;
37483;SDS011;23337;52.212;9.926;2022-09-16T03:02:20;3.47;;;1.40;;
37483;SDS011;23337;52.212;9.926;2022-09-16T03:04:46;2.50;;;1.53;;
37483;SDS011;23337;52.212;9.926;2022-09-16T03:07:12;4.53;;;1.97;;
37483;SDS011;23337;52.212;9.926;2022-09-16T03:09:41;2.93;;;1.50;;
37483;SDS011;23337;52.212;9.926;2022-09-16T03:12:30;5.10;;;2.20;;
37483;SDS011;23337;52.212;9.926;2022-09-16T03:22:35;4.60;;;2.00;;
37483;SDS011;23337;52.212;9.926;2022-09-16T03:25:08;3.67;;;2.50;;
37483;SDS011;23337;52.212;9.926;2022-09-16T03:27:37;4.07;;;2.17;;
37483;SDS011;23337;52.212;9.926;2022-09-16T03:30:07;5.87;;;2.30;;
37483;SDS011;23337;52.212;9.926;2022-09-16T03:32:34;2.93;;;1.60;;
37483;SDS011;23337;52.212;9.926;2022-09-16T03:35:12;6.00;;;2.03;;
37483;SDS011;23337;52.212;9.926;2022-09-16T03:37:41;2.93;;;1.77;;
37483;SDS011;23337;52.212;9.926;2022-09-16T03:40:16;4.27;;;1.83;;
37483;SDS011;23337;52.212;9.926;2022-09-16T03:42:43;5.40;;;2.03;;
37483;SDS011;23337;52.212;9.926;2022-09-16T03:45:13;6.03;;;2.00;;
37483;SDS011;23337;52.212;9.926;2022-09-16T03:47:40;2.83;;;1.50;;
37483;SDS011;23337;52.212;9.926;2022-09-16T03:50:06;3.57;;;2.00;;
37483;SDS011;23337;52.212;9.926;2022-09-16T03:52:32;4.77;;;1.80;;
37483;SDS011;23337;52.212;9.926;2022-09-16T03:54:58;5.10;;;1.67;;
37483;SDS011;23337;52.212;9.926;2022-09-16T03:57:24;2.60;;;1.93;;
37483;SDS011;23337;52.212;9.926;2022-09-16T03:59:52;5.43;;;1.83;;
37483;SDS011;23337;52.212;9.926;2022-09-16T04:02:18;7.67;;;2.30;;
37483;SDS011;23337;52.212;9.926;2022-09-16T04:04:44;2.50;;;1.83;;
37483;SDS011;23337;52.212;9.926;2022-09-16T04:07:10;4.50;;;2.10;;
37483;SDS011;23337;52.212;9.926;2022-09-16T04:09:36;5.33;;;2.37;;
37483;SDS011;23337;52.212;9.926;2022-09-16T04:12:02;5.47;;;2.63;;
37483;SDS011;23337;52.212;9.926;2022-09-16T04:14:31;3.43;;;2.00;;
37483;SDS011;23337;52.212;9.926;2022-09-16T04:16:57;4.40;;;2.20;;
37483;SDS011;23337;52.212;9.926;2022-09-16T04:19:23;4.10;;;2.13;;
37483;SDS011;23337;52.212;9.926;2022-09-16T04:21:49;3.53;;;2.20;;
37483;SDS011;23337;52.212;9.926;2022-09-16T04:24:15;2.50;;;1.90;;
37483;SDS011;23337;52.212;9.926;2022-09-16T04:26:41;3.43;;;2.20;;
37483;SDS011;23337;52.212;9.926;2022-09-16T04:29:07;4.47;;;2.40;;
37483;SDS011;23337;52.212;9.926;2022-09-16T04:31:33;3.53;;;2.30;;
37483;SDS011;23337;52.212;9.926;2022-09-16T04:34:00;5.17;;;1.87;;
37483;SDS011;23337;52.212;9.926;2022-09-16T04:36:26;4.70;;;2.57;;
37483;SDS011;23337;52.212;9.926;2022-09-16T04:38:52;2.63;;;2.13;;
37483;SDS011;23337;52.212;9.926;2022-09-16T04:41:19;5.13;;;2.17;;
37483;SDS011;23337;52.212;9.926;2022-09-16T04:43:45;3.40;;;1.87;;
37483;SDS011;23337;52.212;9.926;2022-09-16T04:46:11;5.73;;;2.47;;
37483;SDS011;23337;52.212;9.926;2022-09-16T04:48:37;4.93;;;2.43;;
37483;SDS011;23337;52.212;9.926;2022-09-16T04:51:05;4.93;;;2.50;;
37483;SDS011;23337;52.212;9.926;2022-09-16T04:53:32;3.57;;;1.90;;
37483;SDS011;23337;52.212;9.926;2022-09-16T04:56:18;6.50;;;3.27;;
37483;SDS011;23337;52.212;9.926;2022-09-16T04:58:45;10.97;;;4.63;;
37483;SDS011;23337;52.212;9.926;2022-09-16T05:01:13;10.23;;;4.97;;
37483;SDS011;23337;52.212;9.926;2022-09-16T05:03:40;7.77;;;3.50;;
37483;SDS011;23337;52.212;9.926;2022-09-16T05:06:07;3.73;;;2.30;;
37483;SDS011;23337;52.212;9.926;2022-09-16T05:08:33;5.70;;;2.40;;
37483;SDS011;23337;52.212;9.926;2022-09-16T05:11:06;4.50;;;2.63;;
37483;SDS011;23337;52.212;9.926;2022-09-16T05:13:33;4.20;;;2.43;;
37483;SDS011;23337;52.212;9.926;2022-09-16T05:16:00;3.87;;;2.23;;
37483;SDS011;23337;52.212;9.926;2022-09-16T05:18:27;4.53;;;2.77;;
37483;SDS011;23337;52.212;9.926;2022-09-16T05:20:57;2.73;;;1.97;;
37483;SDS011;23337;52.212;9.926;2022-09-16T05:23:23;4.87;;;2.07;;
37483;SDS011;23337;52.212;9.926;2022-09-16T05:25:49;3.63;;;1.90;;
37483;SDS011;23337;52.212;9.926;2022-09-16T05:28:15;3.60;;;2.17;;
37483;SDS011;23337;52.212;9.926;2022-09-16T05:30:41;4.27;;;1.67;;
37483;SDS011;23337;52.212;9.926;2022-09-16T05:33:06;3.17;;;1.80;;
37483;SDS011;23337;52.212;9.926;2022-09-16T05:35:32;1.93;;;1.60;;
37483;SDS011;23337;52.212;9.926;2022-09-16T05:37:58;3.47;;;1.57;;
37483;SDS011;23337;52.212;9.926;2022-09-16T05:40:24;2.93;;;1.67;;
37483;SDS011;23337;52.212;9.926;2022-09-16T05:42:51;4.00;;;2.60;;
37483;SDS011;23337;52.212;9.926;2022-09-16T05:45:17;3.73;;;2.10;;
37483;SDS011;23337;52.212;9.926;2022-09-16T05:47:47;5.87;;;2.70;;
37483;SDS011;23337;52.212;9.926;2022-09-16T05:50:13;2.20;;;1.70;;
37483;SDS011;23337;52.212;9.926;2022-09-16T05:52:39;5.93;;;2.10;;
37483;SDS011;23337;52.212;9.926;2022-09-16T05:55:05;4.00;;;1.90;;
37483;SDS011;23337;52.212;9.926;2022-09-16T05:57:31;4.50;;;1.77;;
37483;SDS011;23337;52.212;9.926;2022-09-16T05:59:57;2.40;;;1.80;;
37483;SDS011;23337;52.212;9.926;2022-09-16T06:02:23;3.57;;;1.73;;
37483;SDS011;23337;52.212;9.926;2022-09-16T06:04:49;3.53;;;2.30;;
37483;SDS011;23337;52.212;9.926;2022-09-16T06:07:15;3.77;;;2.17;;
37483;SDS011;23337;52.212;9.926;2022-09-16T06:09:41;7.90;;;2.40;;
37483;SDS011;23337;52.212;9.926;2022-09-16T06:12:08;5.07;;;1.80;;
37483;SDS011;23337;52.212;9.926;2022-09-16T06:14:34;6.10;;;2.13;;
37483;SDS011;23337;52.212;9.926;2022-09-16T06:17:00;5.20;;;2.60;;
37483;SDS011;23337;52.212;9.926;2022-09-16T06:19:26;2.03;;;1.70;;
37483;SDS011;23337;52.212;9.926;2022-09-16T06:21:52;4.87;;;2.20;;
37483;SDS011;23337;52.212;9.926;2022-09-16T06:24:19;6.93;;;2.10;;
37483;SDS011;23337;52.212;9.926;2022-09-16T06:26:46;4.23;;;1.80;;
37483;SDS011;23337;52.212;9.926;2022-09-16T06:29:12;4.60;;;2.13;;
37483;SDS011;23337;52.212;9.926;2022-09-16T06:31:39;3.60;;;1.80;;
37483;SDS011;23337;52.212;9.926;2022-09-16T06:34:05;3.67;;;2.23;;
37483;SDS011;23337;52.212;9.926;2022-09-16T06:36:34;2.87;;;1.80;;
37483;SDS011;23337;52.212;9.926;2022-09-16T06:39:00;2.47;;;1.97;;
37483;SDS011;23337;52.212;9.926;2022-09-16T06:41:26;4.13;;;1.70;;
37483;SDS011;23337;52.212;9.926;2022-09-16T06:43:52;3.50;;;1.90;;
37483;SDS011;23337;52.212;9.926;2022-09-16T06:46:20;3.27;;;1.50;;
37483;SDS011;23337;52.212;9.926;2022-09-16T06:48:47;3.77;;;1.83;;
37483;SDS011;23337;52.212;9.926;2022-09-16T06:51:17;5.60;;;1.73;;
37483;SDS011;23337;52.212;9.926;2022-09-16T06:53:43;4.03;;;2.00;;
37483;SDS011;23337;52.212;9.926;2022-09-16T06:56:11;4.23;;;1.57;;
37483;SDS011;23337;52.212;9.926;2022-09-16T06:58:38;3.33;;;1.27;;
37483;SDS011;23337;52.212;9.926;2022-09-16T07:01:08;2.60;;;1.60;;
37483;SDS011;23337;52.212;9.926;2022-09-16T07:03:39;4.30;;;1.40;;
37483;SDS011;23337;52.212;9.926;2022-09-16T07:06:05;3.03;;;1.47;;
37483;SDS011;23337;52.212;9.926;2022-09-16T07:08:31;2.10;;;0.93;;
37483;SDS011;23337;52.212;9.926;2022-09-16T07:10:58;2.67;;;1.20;;
37483;SDS011;23337;52.212;9.926;2022-09-16T07:13:24;4.23;;;0.80;;
37483;SDS011;23337;52.212;9.926;2022-09-16T07:15:50;2.97;;;1.47;;
37483;SDS011;23337;52.212;9.926;2022-09-16T07:18:16;2.50;;;1.53;;
37483;SDS011;23337;52.212;9.926;2022-09-16T07:20:42;3.73;;;1.70;;
37483;SDS011;23337;52.212;9.926;2022-09-16T07:23:08;4.67;;;1.30;;
37483;SDS011;23337;52.212;9.926;2022-09-16T07:25:34;2.60;;;1.47;;
37483;SDS011;23337;52.212;9.926;2022-09-16T07:28:00;1.70;;;0.97;;
37483;SDS011;23337;52.212;9.926;2022-09-16T07:30:27;3.87;;;1.43;;
37483;SDS011;23337;52.212;9.926;2022-09-16T07:32:54;3.50;;;1.73;;
37483;SDS011;23337;52.212;9.926;2022-09-16T07:35:20;3.73;;;1.53;;
37483;SDS011;23337;52.212;9.926;2022-09-16T07:37:46;2.57;;;1.57;;
37483;SDS011;23337;52.212;9.926;2022-09-16T07:40:12;2.60;;;1.20;;
37483;SDS011;23337;52.212;9.926;2022-09-16T07:42:38;6.00;;;1.57;;
37483;SDS011;23337;52.212;9.926;2022-09-16T07:45:05;5.20;;;2.03;;
37483;SDS011;23337;52.212;9.926;2022-09-16T07:47:31;2.63;;;1.87;;
37483;SDS011;23337;52.212;9.926;2022-09-16T07:49:57;3.20;;;2.13;;
37483;SDS011;23337;52.212;9.926;2022-09-16T07:52:23;4.50;;;1.20;;
37483;SDS011;23337;52.212;9.926;2022-09-16T07:54:55;5.30;;;1.57;;
37483;SDS011;23337;52.212;9.926;2022-09-16T07:57:21;2.00;;;1.67;;
37483;SDS011;23337;52.212;9.926;2022-09-16T07:59:48;2.80;;;1.10;;
37483;SDS011;23337;52.212;9.926;2022-09-16T08:02:14;3.13;;;1.10;;
37483;SDS011;23337;52.212;9.926;2022-09-16T08:04:41;3.47;;;1.40;;
37483;SDS011;23337;52.212;9.926;2022-09-16T08:07:07;5.17;;;2.00;;
37483;SDS011;23337;52.212;9.926;2022-09-16T08:09:33;3.07;;;1.27;;
37483;SDS011;23337;52.212;9.926;2022-09-16T08:12:02;5.13;;;1.03;;
37483;SDS011;23337;52.212;9.926;2022-09-16T08:14:29;6.87;;;1.40;;
37483;SDS011;23337;52.212;9.926;2022-09-16T08:16:55;5.47;;;1.83;;
37483;SDS011;23337;52.212;9.926;2022-09-16T08:19:21;4.03;;;1.40;;
37483;SDS011;23337;52.212;9.926;2022-09-16T08:21:47;3.40;;;1.20;;
37483;SDS011;23337;52.212;9.926;2022-09-16T08:24:13;3.07;;;1.40;;
37483;SDS011;23337;52.212;9.926;2022-09-16T08:26:40;2.27;;;0.77;;
37483;SDS011;23337;52.212;9.926;2022-09-16T08:29:06;3.80;;;1.60;;
37483;SDS011;23337;52.212;9.926;2022-09-16T08:31:32;2.70;;;1.17;;
37483;SDS011;23337;52.212;9.926;2022-09-16T08:33:58;1.87;;;1.00;;
37483;SDS011;23337;52.212;9.926;2022-09-16T08:36:24;6.80;;;1.10;;
37483;SDS011;23337;52.212;9.926;2022-09-16T08:38:51;3.70;;;1.10;;
37483;SDS011;23337;52.212;9.926;2022-09-16T08:46:39;2.77;;;0.80;;
37483;SDS011;23337;52.212;9.926;2022-09-16T08:51:42;2.83;;;0.73;;
37483;SDS011;23337;52.212;9.926;2022-09-16T08:54:10;3.40;;;1.30;;
37483;SDS011;23337;52.212;9.926;2022-09-16T08:56:37;7.97;;;1.23;;
37483;SDS011;23337;52.212;9.926;2022-09-16T08:59:05;5.60;;;1.07;;
37483;SDS011;23337;52.212;9.926;2022-09-16T09:01:58;4.60;;;1.40;;
37483;SDS011;23337;52.212;9.926;2022-09-16T09:04:21;6.43;;;1.67;;
37483;SDS011;23337;52.212;9.926;2022-09-16T09:12:01;7.23;;;1.53;;
37483;SDS011;23337;52.212;9.926;2022-09-16T09:14:34;4.40;;;0.70;;
37483;SDS011;23337;52.212;9.926;2022-09-16T09:28:07;3.27;;;0.77;;
37483;SDS011;23337;52.212;9.926;2022-09-16T09:30:38;5.97;;;1.13;;
37483;SDS011;23337;52.212;9.926;2022-09-16T09:43:05;6.17;;;0.77;;
37483;SDS011;23337;52.212;9.926;2022-09-16T09:45:35;5.07;;;0.83;;
37483;SDS011;23337;52.212;9.926;2022-09-16T09:48:18;4.27;;;0.80;;
37483;SDS011;23337;52.212;9.926;2022-09-16T09:50:49;4.23;;;0.70;;
37483;SDS011;23337;52.212;9.926;2022-09-16T09:55:41;4.80;;;1.23;;
37483;SDS011;23337;52.212;9.926;2022-09-16T09:58:19;3.03;;;0.70;;
37483;SDS011;23337;52.212;9.926;2022-09-16T10:00:48;5.97;;;0.93;;
37483;SDS011;23337;52.212;9.926;2022-09-16T10:03:17;3.07;;;0.87;;
37483;SDS011;23337;52.212;9.926;2022-09-16T10:05:44;8.17;;;1.73;;
37483;SDS011;23337;52.212;9.926;2022-09-16T10:10:49;5.47;;;1.07;;
37483;SDS011;23337;52.212;9.926;2022-09-16T10:13:16;5.20;;;0.90;;
37483;SDS011;23337;52.212;9.926;2022-09-16T10:15:43;5.83;;;1.63;;
37483;SDS011;23337;52.212;9.926;2022-09-16T10:18:18;3.37;;;1.00;;
37483;SDS011;23337;52.212;9.926;2022-09-16T10:20:53;3.43;;;0.60;;
37483;SDS011;23337;52.212;9.926;2022-09-16T10:23:21;6.07;;;1.60;;
37483;SDS011;23337;52.212;9.926;2022-09-16T10:25:47;3.87;;;1.10;;
37483;SDS011;23337;52.212;9.926;2022-09-16T10:28:18;6.30;;;1.30;;
37483;SDS011;23337;52.212;9.926;2022-09-16T10:30:49;4.40;;;0.97;;
37483;SDS011;23337;52.212;9.926;2022-09-16T10:33:40;3.40;;;1.00;;
37483;SDS011;23337;52.212;9.926;2022-09-16T10:36:05;2.03;;;0.80;;
37483;SDS011;23337;52.212;9.926;2022-09-16T10:38:34;2.73;;;0.60;;
37483;SDS011;23337;52.212;9.926;2022-09-16T10:43:34;3.37;;;1.10;;
37483;SDS011;23337;52.212;9.926;2022-09-16T10:46:01;5.00;;;1.00;;
37483;SDS011;23337;52.212;9.926;2022-09-16T10:48:27;3.63;;;1.03;;
37483;SDS011;23337;52.212;9.926;2022-09-16T10:50:58;6.83;;;0.97;;
37483;SDS011;23337;52.212;9.926;2022-09-16T10:55:57;6.13;;;1.30;;
37483;SDS011;23337;52.212;9.926;2022-09-16T10:58:24;2.10;;;1.00;;
37483;SDS011;23337;52.212;9.926;2022-09-16T11:06:23;3.37;;;1.20;;
37483;SDS011;23337;52.212;9.926;2022-09-16T11:11:39;3.80;;;1.00;;
37483;SDS011;23337;52.212;9.926;2022-09-16T11:19:49;2.93;;;0.77;;
37483;SDS011;23337;52.212;9.926;2022-09-16T11:24:55;1.53;;;0.70;;
37483;SDS011;23337;52.212;9.926;2022-09-16T11:30:17;6.83;;;0.93;;
37483;SDS011;23337;52.212;9.926;2022-09-16T11:37:50;5.53;;;0.80;;
37483;SDS011;23337;52.212;9.926;2022-09-16T11:45:42;13.87;;;1.47;;
37483;SDS011;23337;52.212;9.926;2022-09-16T11:48:24;3.77;;;0.80;;
37483;SDS011;23337;52.212;9.926;2022-09-16T11:51:06;3.93;;;1.30;;
37483;SDS011;23337;52.212;9.926;2022-09-16T11:56:07;2.73;;;0.60;;
37483;SDS011;23337;52.212;9.926;2022-09-16T11:58:41;5.57;;;1.10;;
37483;SDS011;23337;52.212;9.926;2022-09-16T12:01:50;3.00;;;0.60;;
37483;SDS011;23337;52.212;9.926;2022-09-16T12:03:58;3.30;;;0.70;;
37483;SDS011;23337;52.212;9.926;2022-09-16T12:06:26;6.93;;;1.00;;
37483;SDS011;23337;52.212;9.926;2022-09-16T12:11:38;2.53;;;0.63;;
37483;SDS011;23337;52.212;9.926;2022-09-16T12:19:28;3.67;;;0.90;;
37483;SDS011;23337;52.212;9.926;2022-09-16T12:22:00;4.53;;;0.70;;
37483;SDS011;23337;52.212;9.926;2022-09-16T12:27:02;3.40;;;0.60;;
37483;SDS011;23337;52.212;9.926;2022-09-16T12:29:32;2.67;;;0.57;;
37483;SDS011;23337;52.212;9.926;2022-09-16T12:34:32;2.53;;;0.93;;
37483;SDS011;23337;52.212;9.926;2022-09-16T12:37:42;2.30;;;1.20;;
37483;SDS011;23337;52.212;9.926;2022-09-16T12:39:49;4.50;;;1.27;;
37483;SDS011;23337;52.212;9.926;2022-09-16T12:42:28;4.67;;;1.37;;
37483;SDS011;23337;52.212;9.926;2022-09-16T12:45:01;2.63;;;1.10;;
37483;SDS011;23337;52.212;9.926;2022-09-16T12:52:37;6.47;;;0.97;;
37483;SDS011;23337;52.212;9.926;2022-09-16T12:55:29;3.90;;;0.70;;
37483;SDS011;23337;52.212;9.926;2022-09-16T13:03:38;5.70;;;0.90;;
37483;SDS011;23337;52.212;9.926;2022-09-16T13:06:17;2.30;;;0.60;;
37483;SDS011;23337;52.212;9.926;2022-09-16T13:08:44;4.10;;;0.93;;
37483;SDS011;23337;52.212;9.926;2022-09-16T13:11:16;4.10;;;0.63;;
37483;SDS011;23337;52.212;9.926;2022-09-16T13:13:47;3.50;;;0.40;;
37483;SDS011;23337;52.212;9.926;2022-09-16T13:16:14;5.00;;;0.70;;
37483;SDS011;23337;52.212;9.926;2022-09-16T13:18:50;1.97;;;0.40;;
37483;SDS011;23337;52.212;9.926;2022-09-16T13:21:30;4.07;;;0.80;;
37483;SDS011;23337;52.212;9.926;2022-09-16T13:24:05;3.13;;;0.93;;
37483;SDS011;23337;52.212;9.926;2022-09-16T13:26:39;1.73;;;0.50;;
37483;SDS011;23337;52.212;9.926;2022-09-16T13:31:50;3.30;;;0.77;;
37483;SDS011;23337;52.212;9.926;2022-09-16T13:34:16;5.17;;;0.67;;
37483;SDS011;23337;52.212;9.926;2022-09-16T13:36:43;3.93;;;0.80;;
37483;SDS011;23337;52.212;9.926;2022-09-16T13:39:13;3.27;;;1.00;;
37483;SDS011;23337;52.212;9.926;2022-09-16T13:46:50;2.90;;;0.63;;
37483;SDS011;23337;52.212;9.926;2022-09-16T13:49:23;3.00;;;0.40;;
37483;SDS011;23337;52.212;9.926;2022-09-16T13:51:51;1.50;;;0.50;;
37483;SDS011;23337;52.212;9.926;2022-09-16T13:54:18;1.07;;;0.40;;
37483;SDS011;23337;52.212;9.926;2022-09-16T14:07:50;3.43;;;0.57;;
37483;SDS011;23337;52.212;9.926;2022-09-16T14:10:38;3.47;;;0.53;;
37483;SDS011;23337;52.212;9.926;2022-09-16T14:13:08;4.33;;;0.77;;
37483;SDS011;23337;52.212;9.926;2022-09-16T14:15:36;1.87;;;0.50;;
37483;SDS011;23337;52.212;9.926;2022-09-16T14:18:04;2.07;;;0.63;;
37483;SDS011;23337;52.212;9.926;2022-09-16T14:20:31;1.73;;;0.40;;
37483;SDS011;23337;52.212;9.926;2022-09-16T14:22:59;5.80;;;0.80;;
37483;SDS011;23337;52.212;9.926;2022-09-16T14:25:29;2.13;;;0.50;;
37483;SDS011;23337;52.212;9.926;2022-09-16T14:28:06;1.67;;;0.33;;
37483;SDS011;23337;52.212;9.926;2022-09-16T14:30:32;2.53;;;0.43;;
37483;SDS011;23337;52.212;9.926;2022-09-16T14:32:59;2.27;;;0.57;;
37483;SDS011;23337;52.212;9.926;2022-09-16T14:35:26;1.23;;;0.30;;
37483;SDS011;23337;52.212;9.926;2022-09-16T14:37:56;1.10;;;0.20;;
37483;SDS011;23337;52.212;9.926;2022-09-16T14:40:23;0.57;;;0.40;;
37483;SDS011;23337;52.212;9.926;2022-09-16T14:42:51;2.67;;;0.40;;
37483;SDS011;23337;52.212;9.926;2022-09-16T14:45:18;1.00;;;0.30;;
37483;SDS011;23337;52.212;9.926;2022-09-16T14:47:44;2.00;;;0.27;;
37483;SDS011;23337;52.212;9.926;2022-09-16T14:50:12;1.33;;;0.47;;
37483;SDS011;23337;52.212;9.926;2022-09-16T14:52:39;3.47;;;0.60;;
37483;SDS011;23337;52.212;9.926;2022-09-16T14:55:19;1.87;;;0.40;;
37483;SDS011;23337;52.212;9.926;2022-09-16T14:57:45;2.80;;;0.63;;
37483;SDS011;23337;52.212;9.926;2022-09-16T15:00:12;1.50;;;0.33;;
37483;SDS011;23337;52.212;9.926;2022-09-16T15:02:41;2.13;;;0.50;;
37483;SDS011;23337;52.212;9.926;2022-09-16T15:07:43;1.33;;;0.30;;
37483;SDS011;23337;52.212;9.926;2022-09-16T15:12:43;2.80;;;0.63;;
37483;SDS011;23337;52.212;9.926;2022-09-16T15:15:15;2.17;;;0.40;;
37483;SDS011;23337;52.212;9.926;2022-09-16T15:17:42;1.30;;;0.57;;
37483;SDS011;23337;52.212;9.926;2022-09-16T15:20:20;2.23;;;0.70;;
37483;SDS011;23337;52.212;9.926;2022-09-16T15:22:47;1.80;;;0.80;;
37483;SDS011;23337;52.212;9.926;2022-09-16T15:25:19;1.80;;;0.77;;
37483;SDS011;23337;52.212;9.926;2022-09-16T15:27:46;2.73;;;1.03;;
37483;SDS011;23337;52.212;9.926;2022-09-16T15:30:22;2.43;;;0.37;;
37483;SDS011;23337;52.212;9.926;2022-09-16T15:32:48;2.63;;;0.40;;
37483;SDS011;23337;52.212;9.926;2022-09-16T15:37:40;1.73;;;0.67;;
37483;SDS011;23337;52.212;9.926;2022-09-16T15:42:36;3.63;;;1.40;;
37483;SDS011;23337;52.212;9.926;2022-09-16T15:45:02;2.13;;;0.60;;
37483;SDS011;23337;52.212;9.926;2022-09-16T15:47:37;1.87;;;0.63;;
37483;SDS011;23337;52.212;9.926;2022-09-16T15:50:11;3.30;;;0.50;;
37483;SDS011;23337;52.212;9.926;2022-09-16T15:55:13;3.40;;;0.57;;
37483;SDS011;23337;52.212;9.926;2022-09-16T15:57:42;4.70;;;0.70;;
37483;SDS011;23337;52.212;9.926;2022-09-16T16:00:10;4.67;;;0.93;;
37483;SDS011;23337;52.212;9.926;2022-09-16T16:07:39;3.60;;;0.40;;
37483;SDS011;23337;52.212;9.926;2022-09-16T16:12:41;4.40;;;0.80;;
37483;SDS011;23337;52.212;9.926;2022-09-16T16:15:07;2.43;;;0.70;;
37483;SDS011;23337;52.212;9.926;2022-09-16T16:17:33;3.97;;;1.43;;
37483;SDS011;23337;52.212;9.926;2022-09-16T16:19:59;4.17;;;1.27;;
37483;SDS011;23337;52.212;9.926;2022-09-16T16:22:26;5.67;;;0.90;;
37483;SDS011;23337;52.212;9.926;2022-09-16T16:24:52;6.77;;;1.10;;
37483;SDS011;23337;52.212;9.926;2022-09-16T16:27:18;5.10;;;0.83;;
37483;SDS011;23337;52.212;9.926;2022-09-16T16:29:44;4.80;;;0.60;;
37483;SDS011;23337;52.212;9.926;2022-09-16T16:32:12;4.00;;;0.60;;
37483;SDS011;23337;52.212;9.926;2022-09-16T16:34:39;2.27;;;0.70;;
37483;SDS011;23337;52.212;9.926;2022-09-16T16:37:05;6.00;;;0.80;;
37483;SDS011;23337;52.212;9.926;2022-09-16T16:39:32;4.20;;;0.70;;
37483;SDS011;23337;52.212;9.926;2022-09-16T16:41:58;6.20;;;1.17;;
37483;SDS011;23337;52.212;9.926;2022-09-16T16:44:24;4.07;;;0.60;;
37483;SDS011;23337;52.212;9.926;2022-09-16T16:46:51;5.07;;;0.90;;
37483;SDS011;23337;52.212;9.926;2022-09-16T16:49:17;2.30;;;0.57;;
37483;SDS011;23337;52.212;9.926;2022-09-16T16:51:44;1.50;;;0.80;;
37483;SDS011;23337;52.212;9.926;2022-09-16T16:54:10;3.77;;;1.00;;
37483;SDS011;23337;52.212;9.926;2022-09-16T16:56:37;3.97;;;1.40;;
37483;SDS011;23337;52.212;9.926;2022-09-16T16:59:04;5.00;;;1.30;;
37483;SDS011;23337;52.212;9.926;2022-09-16T17:01:30;2.40;;;1.30;;
37483;SDS011;23337;52.212;9.926;2022-09-16T17:03:57;2.87;;;0.83;;
37483;SDS011;23337;52.212;9.926;2022-09-16T17:06:24;5.03;;;1.00;;
37483;SDS011;23337;52.212;9.926;2022-09-16T17:08:50;1.87;;;0.90;;
37483;SDS011;23337;52.212;9.926;2022-09-16T17:11:18;5.00;;;1.70;;
37483;SDS011;23337;52.212;9.926;2022-09-16T17:13:45;7.23;;;4.20;;
37483;SDS011;23337;52.212;9.926;2022-09-16T17:16:12;4.17;;;1.60;;
37483;SDS011;23337;52.212;9.926;2022-09-16T17:18:40;6.87;;;2.00;;
37483;SDS011;23337;52.212;9.926;2022-09-16T17:21:07;3.80;;;0.87;;
37483;SDS011;23337;52.212;9.926;2022-09-16T17:23:34;6.37;;;1.10;;
37483;SDS011;23337;52.212;9.926;2022-09-16T17:26:00;5.80;;;1.27;;
37483;SDS011;23337;52.212;9.926;2022-09-16T17:28:26;2.87;;;0.80;;
37483;SDS011;23337;52.212;9.926;2022-09-16T17:30:52;3.20;;;0.87;;
37483;SDS011;23337;52.212;9.926;2022-09-16T17:33:19;5.70;;;1.33;;
37483;SDS011;23337;52.212;9.926;2022-09-16T17:35:45;5.03;;;1.50;;
37483;SDS011;23337;52.212;9.926;2022-09-16T17:38:11;3.43;;;1.00;;